createdAt,value
2023-05-25T00:01:01.164Z,68.87
2023-05-25T00:03:31.260Z,69.26
2023-05-25T00:06:01.534Z,69.44
2023-05-25T00:08:31.196Z,69.04
2023-05-25T00:10:59.373Z,69.36
2023-05-25T00:13:27.360Z,68.80
2023-05-25T00:15:55.215Z,69.09
2023-05-25T00:18:24.764Z,69.03
2023-05-25T00:20:54.122Z,69.10
2023-05-25T00:23:22.237Z,69.25
2023-05-25T00:25:51.509Z,68.99
2023-05-25T00:28:19.454Z,68.66
2023-05-25T00:30:47.387Z,68.66
2023-05-25T00:33:15.634Z,68.74
2023-05-25T00:35:44.788Z,68.16
2023-05-25T00:38:14.489Z,67.92
2023-05-25T00:40:42.639Z,68.03
2023-05-25T00:43:12.651Z,68.28
2023-05-25T00:45:41.751Z,67.75
2023-05-25T00:48:11.388Z,67.88
2023-05-25T00:50:40.705Z,68.15
2023-05-25T00:53:10.519Z,68.20
2023-05-25T00:55:42.391Z,68.38
2023-05-25T00:58:14.311Z,68.83
2023-05-25T01:00:46.700Z,68.34
2023-05-25T01:03:21.829Z,68.74
2023-05-25T01:05:55.299Z,68.97
2023-05-25T01:08:26.511Z,69.10
2023-05-25T01:10:55.207Z,69.17
2023-05-25T01:13:24.665Z,69.02
2023-05-25T01:15:53.611Z,69.24
2023-05-25T01:18:21.465Z,68.88
2023-05-25T01:21:02.029Z,69.19
2023-05-25T01:23:35.982Z,69.24
2023-05-25T01:26:10.417Z,69.46
2023-05-25T01:28:42.025Z,69.28
2023-05-25T01:31:10.583Z,69.56
2023-05-25T01:33:39.509Z,69.45
2023-05-25T01:36:08.913Z,69.86
2023-05-25T01:38:38.511Z,69.57
2023-05-25T01:41:06.526Z,69.79
2023-05-25T01:43:34.501Z,69.74
2023-05-25T01:46:11.827Z,69.92
2023-05-25T01:48:49.586Z,70.29
2023-05-25T01:51:26.728Z,70.15
2023-05-25T01:54:00.180Z,70.14
2023-05-25T01:56:31.998Z,69.65
2023-05-25T01:59:02.566Z,70.24
2023-05-25T02:01:34.576Z,69.73
2023-05-25T02:04:03.321Z,70.11
2023-05-25T02:06:36.514Z,70.01
2023-05-25T02:09:07.358Z,70.09
2023-05-25T02:11:35.343Z,69.84
2023-05-25T02:14:03.233Z,69.78
2023-05-25T02:16:31.186Z,70.26
2023-05-25T02:19:01.145Z,69.97
2023-05-25T02:21:29.175Z,70.06
2023-05-25T02:23:59.097Z,70.21
2023-05-25T02:26:27.366Z,70.49
2023-05-25T02:28:55.255Z,70.64
2023-05-25T02:31:23.142Z,70.24
2023-05-25T02:33:51.126Z,70.72
2023-05-25T02:36:21.108Z,70.96
2023-05-25T02:38:52.171Z,70.82
2023-05-25T02:41:22.155Z,70.77
2023-05-25T02:43:50.047Z,71.29
2023-05-25T02:46:17.964Z,71.35
2023-05-25T02:48:46.641Z,71.52
2023-05-25T02:51:14.915Z,71.03
2023-05-25T02:53:43.003Z,71.59
2023-05-25T02:56:11.323Z,71.10
2023-05-25T02:58:40.989Z,71.28
2023-05-25T03:01:18.717Z,71.92
2023-05-25T03:03:53.109Z,71.95
2023-05-25T03:06:26.205Z,72.43
2023-05-25T03:09:04.996Z,72.35
2023-05-25T03:11:33.538Z,72.69
2023-05-25T03:14:07.054Z,72.15
2023-05-25T03:16:36.643Z,72.59
2023-05-25T03:19:05.686Z,72.47
2023-05-25T03:21:36.211Z,72.10
2023-05-25T03:24:04.439Z,71.91
2023-05-25T03:26:32.829Z,72.08
2023-05-25T03:29:02.249Z,72.42
2023-05-25T03:31:32.067Z,72.80
2023-05-25T03:33:59.998Z,71.73
2023-05-25T03:36:28.409Z,71.82
2023-05-25T03:38:56.475Z,71.36
2023-05-25T03:41:24.496Z,71.17
2023-05-25T03:43:53.069Z,70.89
2023-05-25T03:46:21.753Z,70.46
2023-05-25T03:48:51.074Z,70.11
2023-05-25T03:51:19.115Z,70.47
2023-05-25T03:53:47.058Z,70.62
2023-05-25T03:56:14.928Z,69.95
2023-05-25T03:58:42.822Z,70.48
2023-05-25T04:01:12.459Z,69.83
2023-05-25T04:03:40.557Z,69.96
2023-05-25T04:06:10.076Z,70.07
2023-05-25T04:08:40.934Z,70.06
2023-05-25T04:11:08.855Z,69.80
2023-05-25T04:13:36.869Z,69.83
2023-05-25T04:16:07.091Z,70.14
2023-05-25T04:18:36.129Z,69.83
2023-05-25T04:21:07.040Z,69.62
2023-05-25T04:23:37.833Z,69.33
2023-05-25T04:26:10.170Z,69.04
2023-05-25T04:28:41.738Z,69.11
2023-05-25T04:31:29.925Z,69.30
2023-05-25T04:34:21.523Z,69.18
2023-05-25T04:37:05.663Z,68.99
2023-05-25T04:39:35.687Z,69.08
2023-05-25T04:42:04.597Z,68.99
2023-05-25T04:44:33.932Z,68.98
2023-05-25T04:47:03.051Z,69.95
2023-05-25T04:49:34.356Z,70.48
2023-05-25T04:52:02.348Z,70.17
2023-05-25T04:54:31.880Z,69.31
2023-05-25T04:57:04.222Z,68.43
2023-05-25T04:59:33.176Z,68.87
2023-05-25T05:02:01.626Z,69.34
2023-05-25T05:04:30.423Z,69.47
2023-05-25T05:06:59.858Z,69.38
2023-05-25T05:09:30.408Z,69.52
2023-05-25T05:12:00.968Z,69.91
2023-05-25T05:14:31.810Z,70.23
2023-05-25T05:17:00.011Z,70.45
2023-05-25T05:19:29.333Z,70.06
2023-05-25T05:21:57.463Z,69.90
2023-05-25T05:24:27.250Z,69.96
2023-05-25T05:26:58.305Z,69.68
2023-05-25T05:29:40.950Z,69.64
2023-05-25T05:32:09.434Z,69.94
2023-05-25T05:34:37.592Z,69.41
2023-05-25T05:37:10.560Z,68.84
2023-05-25T05:39:38.708Z,68.63
2023-05-25T05:42:08.155Z,69.31
2023-05-25T05:44:36.289Z,69.13
2023-05-25T05:47:06.570Z,69.18
2023-05-25T05:49:35.378Z,69.05
2023-05-25T05:52:04.490Z,68.77
2023-05-25T05:54:33.647Z,69.22
2023-05-25T05:57:07.119Z,68.84
2023-05-25T05:59:35.685Z,68.67
2023-05-25T06:02:05.267Z,68.84
2023-05-25T06:04:33.369Z,67.85
2023-05-25T06:07:01.255Z,68.19
2023-05-25T06:09:29.273Z,68.07
2023-05-25T06:12:01.647Z,68.38
2023-05-25T06:14:30.231Z,68.63
2023-05-25T06:17:01.850Z,68.49
2023-05-25T06:19:41.912Z,68.66
2023-05-25T06:22:09.903Z,68.43
2023-05-25T06:24:37.845Z,68.63
2023-05-25T06:27:06.893Z,68.23
2023-05-25T06:29:35.096Z,67.90
2023-05-25T06:32:04.739Z,67.89
2023-05-25T06:34:37.906Z,67.67
2023-05-25T06:37:07.101Z,67.77
2023-05-25T06:39:36.249Z,67.48
2023-05-25T06:42:04.884Z,67.21
2023-05-25T06:44:35.205Z,67.21
2023-05-25T06:47:04.087Z,67.37
2023-05-25T06:49:32.745Z,67.47
2023-05-25T06:52:02.446Z,67.54
2023-05-25T06:54:31.021Z,67.73
2023-05-25T06:56:59.213Z,67.24
2023-05-25T06:59:27.196Z,67.10
2023-05-25T07:01:56.206Z,67.18
2023-05-25T07:04:24.410Z,67.12
2023-05-25T07:06:53.200Z,67.37
2023-05-25T07:09:22.598Z,67.44
2023-05-25T07:11:50.648Z,67.20
2023-05-25T07:14:18.989Z,67.03
2023-05-25T07:16:46.857Z,67.16
2023-05-25T07:19:15.020Z,67.42
2023-05-25T07:21:42.964Z,67.10
2023-05-25T07:24:10.988Z,66.78
2023-05-25T07:26:40.505Z,66.63
2023-05-25T07:29:08.607Z,66.53
2023-05-25T07:31:39.104Z,66.27
2023-05-25T07:34:07.147Z,66.30
2023-05-25T07:36:35.147Z,66.79
2023-05-25T07:39:03.189Z,66.08
2023-05-25T07:41:31.276Z,66.32
2023-05-25T07:44:00.694Z,65.76
2023-05-25T07:46:28.795Z,66.44
2023-05-25T07:48:58.354Z,66.61
2023-05-25T07:51:27.148Z,66.54
2023-05-25T07:53:55.364Z,67.28
2023-05-25T07:56:23.451Z,67.35
2023-05-25T07:58:51.404Z,67.25
2023-05-25T08:01:20.701Z,67.20
2023-05-25T08:03:50.150Z,66.84
2023-05-25T08:06:18.435Z,67.29
2023-05-25T08:08:47.018Z,67.27
2023-05-25T08:11:17.240Z,66.85
2023-05-25T08:13:45.334Z,66.64
2023-05-25T08:16:13.238Z,66.86
2023-05-25T08:18:46.551Z,66.72
2023-05-25T08:21:14.801Z,66.96
2023-05-25T08:23:43.900Z,67.13
2023-05-25T08:26:31.180Z,66.95
2023-05-25T08:29:02.282Z,66.85
2023-05-25T08:31:30.369Z,66.20
2023-05-25T08:34:00.419Z,65.59
2023-05-25T08:36:28.678Z,65.79
2023-05-25T08:38:57.096Z,65.76
2023-05-25T08:41:25.120Z,65.46
2023-05-25T08:43:53.245Z,64.28
2023-05-25T08:46:30.876Z,64.56
2023-05-25T08:49:05.999Z,64.15
2023-05-25T08:51:38.065Z,63.76
2023-05-25T08:54:10.669Z,64.22
2023-05-25T08:56:46.281Z,64.42
2023-05-25T08:59:24.292Z,63.91
2023-05-25T09:02:09.742Z,64.37
2023-05-25T09:04:39.842Z,64.20
2023-05-25T09:07:10.809Z,64.25
2023-05-25T09:09:40.433Z,64.41
2023-05-25T09:12:09.462Z,64.51
2023-05-25T09:14:39.776Z,63.91
2023-05-25T09:17:08.015Z,63.67
2023-05-25T09:19:37.534Z,63.76
2023-05-25T09:22:15.049Z,64.08
2023-05-25T09:24:45.334Z,64.12
2023-05-25T09:27:17.400Z,63.91
2023-05-25T09:29:45.291Z,64.04
2023-05-25T09:32:13.828Z,63.44
2023-05-25T09:34:44.971Z,63.25
2023-05-25T09:37:15.400Z,63.55
2023-05-25T09:39:44.643Z,63.76
2023-05-25T09:42:13.419Z,63.21
2023-05-25T09:44:42.770Z,62.98
2023-05-25T09:47:13.879Z,63.63
2023-05-25T09:49:44.447Z,63.32
2023-05-25T09:52:15.775Z,62.72
2023-05-25T09:54:45.778Z,62.72
2023-05-25T09:57:13.750Z,62.21
2023-05-25T09:59:42.831Z,62.44
2023-05-25T10:02:10.836Z,62.26
2023-05-25T10:04:38.854Z,63.20
2023-05-25T10:07:07.217Z,62.94
2023-05-25T10:09:41.641Z,62.50
2023-05-25T10:12:10.262Z,62.49
2023-05-25T10:14:39.237Z,62.43
2023-05-25T10:17:07.992Z,62.08
2023-05-25T10:19:41.485Z,62.47
2023-05-25T10:22:16.911Z,62.30
2023-05-25T10:24:54.764Z,62.54
2023-05-25T10:27:27.538Z,62.06
2023-05-25T10:29:57.431Z,61.93
2023-05-25T10:32:27.199Z,61.76
2023-05-25T10:34:57.858Z,61.69
2023-05-25T10:37:28.161Z,62.12
2023-05-25T10:39:59.100Z,61.55
2023-05-25T10:42:27.993Z,61.44
2023-05-25T10:44:56.655Z,61.24
2023-05-25T10:47:25.677Z,61.24
2023-05-25T10:49:55.371Z,61.28
2023-05-25T10:52:27.662Z,61.11
2023-05-25T10:55:01.549Z,61.14
2023-05-25T10:57:29.911Z,61.31
2023-05-25T11:00:06.102Z,61.47
2023-05-25T11:02:50.285Z,61.94
2023-05-25T11:05:39.296Z,61.30
2023-05-25T11:08:09.087Z,61.47
2023-05-25T11:10:56.366Z,61.09
2023-05-25T11:13:37.048Z,60.65
2023-05-25T11:16:13.549Z,60.62
2023-05-25T11:18:43.675Z,60.33
2023-05-25T11:21:16.683Z,60.15
2023-05-25T11:23:55.514Z,60.48
2023-05-25T11:26:26.496Z,60.07
2023-05-25T11:28:55.155Z,59.93
2023-05-25T11:31:31.603Z,59.34
2023-05-25T11:34:02.167Z,58.73
2023-05-25T11:36:31.609Z,58.79
2023-05-25T11:39:06.538Z,58.43
2023-05-25T11:41:42.243Z,57.94
2023-05-25T11:44:10.205Z,57.81
2023-05-25T11:46:38.751Z,57.51
2023-05-25T11:49:06.912Z,57.49
2023-05-25T11:51:36.271Z,57.66
2023-05-25T11:54:04.435Z,57.91
2023-05-25T11:56:35.875Z,57.60
2023-05-25T11:59:08.760Z,56.81
2023-05-25T12:01:36.743Z,56.37
2023-05-25T12:04:09.930Z,56.38
2023-05-25T12:06:38.314Z,56.59
2023-05-25T12:09:12.841Z,56.57
2023-05-25T12:11:45.354Z,56.66
2023-05-25T12:14:15.537Z,56.21
2023-05-25T12:16:43.917Z,55.43
2023-05-25T12:19:12.756Z,55.35
2023-05-25T12:21:41.955Z,55.72
2023-05-25T12:24:12.611Z,55.46
2023-05-25T12:26:49.082Z,54.55
2023-05-25T12:29:18.548Z,54.56
2023-05-25T12:31:46.500Z,54.09
2023-05-25T12:34:15.824Z,53.72
2023-05-25T12:36:46.319Z,53.66
2023-05-25T12:39:16.012Z,53.64
2023-05-25T12:41:49.258Z,53.62
2023-05-25T12:44:25.396Z,53.30
2023-05-25T12:46:54.671Z,52.64
2023-05-25T12:49:27.329Z,52.74
2023-05-25T12:51:55.506Z,52.56
2023-05-25T12:54:45.099Z,53.02
2023-05-25T12:57:15.086Z,52.09
2023-05-25T12:59:46.232Z,51.63
2023-05-25T13:02:15.606Z,51.00
2023-05-25T13:04:44.571Z,51.04
2023-05-25T13:07:12.832Z,50.46
2023-05-25T13:09:40.803Z,50.05
2023-05-25T13:12:09.457Z,49.97
2023-05-25T13:14:37.484Z,49.96
2023-05-25T13:17:07.155Z,49.45
2023-05-25T13:19:35.194Z,49.65
2023-05-25T13:22:03.191Z,49.37
2023-05-25T13:24:31.150Z,49.24
2023-05-25T13:26:59.058Z,49.03
2023-05-25T13:29:26.962Z,48.98
2023-05-25T13:31:54.852Z,48.43
2023-05-25T13:34:24.144Z,48.71
2023-05-25T13:36:52.035Z,47.82
2023-05-25T13:39:21.987Z,48.41
2023-05-25T13:41:49.945Z,47.91
2023-05-25T13:44:18.001Z,47.28
2023-05-25T13:46:46.801Z,47.34
2023-05-25T13:49:16.225Z,47.32
2023-05-25T13:51:45.617Z,46.92
2023-05-25T13:54:13.703Z,46.60
2023-05-25T13:56:42.455Z,46.61
2023-05-25T13:59:10.751Z,46.10
2023-05-25T14:01:38.699Z,45.54
2023-05-25T14:04:06.692Z,45.82
2023-05-25T14:06:34.950Z,45.03
2023-05-25T14:09:04.338Z,44.96
2023-05-25T14:11:32.696Z,44.79
2023-05-25T14:14:00.678Z,45.17
2023-05-25T14:16:28.881Z,45.39
2023-05-25T14:18:57.383Z,45.56
2023-05-25T14:21:25.358Z,45.08
2023-05-25T14:23:53.283Z,44.80
2023-05-25T14:26:23.010Z,44.05
2023-05-25T14:28:51.345Z,43.35
2023-05-25T14:31:19.428Z,42.82
2023-05-25T14:33:47.503Z,42.79
2023-05-25T14:36:15.492Z,43.19
2023-05-25T14:38:44.732Z,42.92
2023-05-25T14:41:12.605Z,42.28
2023-05-25T14:43:42.221Z,42.02
2023-05-25T14:46:10.577Z,41.59
2023-05-25T14:48:38.500Z,41.62
2023-05-25T14:51:06.506Z,41.38
2023-05-25T14:53:36.619Z,40.94
2023-05-25T14:56:04.581Z,41.40
2023-05-25T14:58:32.876Z,41.30
2023-05-25T15:01:02.136Z,41.74
2023-05-25T15:03:30.259Z,42.11
2023-05-25T15:05:58.281Z,41.36
2023-05-25T15:08:26.122Z,41.33
2023-05-25T15:10:54.173Z,41.16
2023-05-25T15:13:22.707Z,41.33
2023-05-25T15:15:52.081Z,41.62
2023-05-25T15:18:21.494Z,41.28
2023-05-25T15:20:49.429Z,41.10
2023-05-25T15:23:17.459Z,41.52
2023-05-25T15:25:45.500Z,41.80
2023-05-25T15:28:13.370Z,42.13
2023-05-25T15:30:41.330Z,42.11
2023-05-25T15:33:09.604Z,42.27
2023-05-25T15:35:38.892Z,42.24
2023-05-25T15:38:06.926Z,42.96
2023-05-25T15:40:37.001Z,42.58
2023-05-25T15:43:04.950Z,43.13
2023-05-25T15:45:32.933Z,43.40
2023-05-25T15:48:00.927Z,43.54
2023-05-25T15:50:28.861Z,43.86
2023-05-25T15:52:58.193Z,42.96
2023-05-25T15:55:43.171Z,42.59
2023-05-25T15:58:12.413Z,43.08
2023-05-25T16:00:40.392Z,43.10
2023-05-25T16:03:08.417Z,43.07
2023-05-25T16:05:36.325Z,43.09
2023-05-25T16:08:05.663Z,42.55
2023-05-25T16:10:33.607Z,42.68
2023-05-25T16:13:01.706Z,42.80
2023-05-25T16:15:29.707Z,42.37
2023-05-25T16:17:57.566Z,43.21
2023-05-25T16:20:25.464Z,43.30
2023-05-25T16:22:53.382Z,43.64
2023-05-25T16:25:22.606Z,43.94
2023-05-25T16:27:50.596Z,43.79
2023-05-25T16:30:18.595Z,43.93
2023-05-25T16:32:46.503Z,44.32
2023-05-25T16:35:14.482Z,44.75
2023-05-25T16:37:42.374Z,45.13
2023-05-25T16:40:10.993Z,45.01
2023-05-25T16:42:40.340Z,45.41
2023-05-25T16:45:09.201Z,45.63
2023-05-25T16:47:37.185Z,45.98
2023-05-25T16:50:05.928Z,45.98
2023-05-25T16:52:33.785Z,45.88
2023-05-25T16:55:01.872Z,46.05
2023-05-25T16:57:29.848Z,45.83
2023-05-25T16:59:59.123Z,45.17
2023-05-25T17:02:27.199Z,45.48
2023-05-25T17:04:55.153Z,45.43
2023-05-25T17:07:23.062Z,46.13
2023-05-25T17:09:50.990Z,46.59
2023-05-25T17:12:18.903Z,46.82
2023-05-25T17:14:46.881Z,47.19
2023-05-25T17:17:16.484Z,46.84
2023-05-25T17:19:44.399Z,47.33
2023-05-25T17:22:12.468Z,47.78
2023-05-25T17:24:40.357Z,48.08
2023-05-25T17:27:08.228Z,48.96
2023-05-25T17:29:36.842Z,48.74
2023-05-25T17:32:05.019Z,48.71
2023-05-25T17:34:34.426Z,48.79
2023-05-25T17:37:02.374Z,49.34
2023-05-25T17:39:30.340Z,50.35
2023-05-25T17:41:58.308Z,50.25
2023-05-25T17:44:26.896Z,50.75
2023-05-25T17:46:54.914Z,50.66
2023-05-25T17:49:22.894Z,51.05
2023-05-25T17:51:52.303Z,51.24
2023-05-25T17:54:25.518Z,51.90
2023-05-25T17:56:53.726Z,52.62
2023-05-25T17:59:21.836Z,53.09
2023-05-25T18:01:49.989Z,53.79
2023-05-25T18:04:19.491Z,54.19
2023-05-25T18:06:49.752Z,54.66
2023-05-25T18:09:19.200Z,54.70
2023-05-25T18:11:48.116Z,55.19
2023-05-25T18:14:15.999Z,54.92
2023-05-25T18:16:44.763Z,55.77
2023-05-25T18:19:15.199Z,55.67
2023-05-25T18:21:43.185Z,55.84
2023-05-25T18:24:11.248Z,55.78
2023-05-25T18:26:41.620Z,56.32
2023-05-25T18:29:09.731Z,56.21
2023-05-25T18:31:37.869Z,56.75
2023-05-25T18:34:07.494Z,56.58
2023-05-25T18:36:36.363Z,56.59
2023-05-25T18:39:05.177Z,56.79
2023-05-25T18:41:33.142Z,56.65
2023-05-25T18:44:02.423Z,56.87
2023-05-25T18:46:30.546Z,56.78
2023-05-25T18:48:58.565Z,56.74
2023-05-25T18:51:26.834Z,57.04
2023-05-25T18:53:54.766Z,56.99
2023-05-25T18:56:22.813Z,56.96
2023-05-25T18:58:52.062Z,57.12
2023-05-25T19:01:21.418Z,57.22
2023-05-25T19:03:49.428Z,56.93
2023-05-25T19:06:17.411Z,56.67
2023-05-25T19:08:45.281Z,56.64
2023-05-25T19:11:14.462Z,56.78
2023-05-25T19:13:42.491Z,56.75
2023-05-25T19:16:10.382Z,56.72
2023-05-25T19:18:39.851Z,56.80
2023-05-25T19:21:07.859Z,56.68
2023-05-25T19:23:36.115Z,56.59
2023-05-25T19:26:04.019Z,56.22
2023-05-25T19:28:31.998Z,56.59
2023-05-25T19:31:00.940Z,56.40
2023-05-25T19:33:28.934Z,56.37
2023-05-25T19:35:58.230Z,56.42
2023-05-25T19:38:28.846Z,56.42
2023-05-25T19:41:02.422Z,56.23
2023-05-25T19:43:30.270Z,56.61
2023-05-25T19:45:58.261Z,56.46
2023-05-25T19:48:27.405Z,56.23
2023-05-25T19:50:55.477Z,56.36
2023-05-25T19:53:24.701Z,56.57
2023-05-25T19:55:52.592Z,56.52
2023-05-25T19:58:20.489Z,56.16
2023-05-25T20:00:48.528Z,56.01
2023-05-25T20:03:17.774Z,56.25
2023-05-25T20:05:46.422Z,56.33
2023-05-25T20:08:14.503Z,55.82
2023-05-25T20:10:44.887Z,56.17
2023-05-25T20:13:12.826Z,56.09
2023-05-25T20:15:40.735Z,56.11
2023-05-25T20:18:08.731Z,56.54
2023-05-25T20:20:36.803Z,56.99
2023-05-25T20:23:05.034Z,56.83
2023-05-25T20:25:33.014Z,57.19
2023-05-25T20:28:02.317Z,57.26
2023-05-25T20:30:30.479Z,58.03
2023-05-25T20:32:58.419Z,58.25
2023-05-25T20:35:26.466Z,58.56
2023-05-25T20:37:54.322Z,59.21
2023-05-25T20:40:22.337Z,59.07
2023-05-25T20:42:50.191Z,59.48
2023-05-25T20:45:19.480Z,58.82
2023-05-25T20:47:47.513Z,58.87
2023-05-25T20:50:15.532Z,58.47
2023-05-25T20:52:43.413Z,59.22
2023-05-25T20:55:11.449Z,59.42
2023-05-25T20:57:39.388Z,59.32
2023-05-25T21:00:08.445Z,59.65
2023-05-25T21:02:37.744Z,59.79
2023-05-25T21:05:06.482Z,60.04
2023-05-25T21:07:34.412Z,59.62
2023-05-25T21:10:02.898Z,59.94
2023-05-25T21:12:32.061Z,59.64
2023-05-25T21:15:00.074Z,59.51
2023-05-25T21:17:29.423Z,59.70
2023-05-25T21:19:58.993Z,59.43
2023-05-25T21:22:27.108Z,59.49
2023-05-25T21:24:55.148Z,59.70
2023-05-25T21:27:23.465Z,59.72
2023-05-25T21:29:51.340Z,59.78
2023-05-25T21:32:19.276Z,60.00
2023-05-25T21:34:47.124Z,60.43
2023-05-25T21:37:16.398Z,60.38
2023-05-25T21:39:44.963Z,60.26
2023-05-25T21:42:12.904Z,60.20
2023-05-25T21:44:40.795Z,60.61
2023-05-25T21:47:08.794Z,60.66
2023-05-25T21:49:36.698Z,60.80
2023-05-25T21:52:20.774Z,61.19
2023-05-25T21:54:48.817Z,61.12
2023-05-25T21:57:16.792Z,61.55
2023-05-25T21:59:44.668Z,61.62
2023-05-25T22:02:12.665Z,61.68
2023-05-25T22:04:40.605Z,61.84
2023-05-25T22:07:08.467Z,62.37
2023-05-25T22:09:37.818Z,62.23
2023-05-25T22:12:06.782Z,62.25
2023-05-25T22:14:34.736Z,62.60
2023-05-25T22:17:02.824Z,62.78
2023-05-25T22:19:31.100Z,62.60
2023-05-25T22:21:59.016Z,62.62
2023-05-25T22:24:26.952Z,62.97
2023-05-25T22:26:56.260Z,62.97
2023-05-25T22:29:24.149Z,63.12
2023-05-25T22:31:52.125Z,63.72
2023-05-25T22:34:19.996Z,63.16
2023-05-25T22:36:47.863Z,63.51
2023-05-25T22:39:15.825Z,63.55
2023-05-25T22:41:43.712Z,63.51
2023-05-25T22:44:13.022Z,63.38
2023-05-25T22:46:40.967Z,63.24
2023-05-25T22:49:08.908Z,63.58
2023-05-25T22:51:37.326Z,63.20
2023-05-25T22:54:05.222Z,63.30
2023-05-25T22:56:33.073Z,63.07
2023-05-25T22:59:00.900Z,63.18
2023-05-25T23:01:31.480Z,63.53
2023-05-25T23:04:00.437Z,63.68
2023-05-25T23:06:28.422Z,63.49
2023-05-25T23:08:56.380Z,63.94
2023-05-25T23:11:25.375Z,63.72
2023-05-25T23:13:54.721Z,64.10
2023-05-25T23:16:22.726Z,63.74
2023-05-25T23:18:57.541Z,63.71
2023-05-25T23:21:29.678Z,63.56
2023-05-25T23:23:59.532Z,63.55
2023-05-25T23:26:28.539Z,63.90
2023-05-25T23:28:56.795Z,63.94
2023-05-25T23:31:24.827Z,64.43
2023-05-25T23:33:54.190Z,64.55
2023-05-25T23:36:22.077Z,64.21
2023-05-25T23:38:50.013Z,64.55
2023-05-25T23:41:18.027Z,64.01
2023-05-25T23:43:46.422Z,64.10
2023-05-25T23:46:16.308Z,64.22
2023-05-25T23:48:44.425Z,64.50
2023-05-25T23:51:13.729Z,64.76
2023-05-25T23:53:41.626Z,65.07
2023-05-25T23:56:09.594Z,64.94
2023-05-25T23:58:37.493Z,65.42
